sensor_id;sensor_type;location;lat;lon;timestamp;P1;durP1;ratioP1;P2;durP2;ratioP2
55833;SDS011;41761;43.004;-0.066;2022-09-24T00:01:17;11.32;;;6.38;;
55833;SDS011;41761;43.004;-0.066;2022-09-24T00:03:47;10.35;;;6.63;;
55833;SDS011;41761;43.004;-0.066;2022-09-24T00:06:14;15.77;;;6.65;;
55833;SDS011;41761;43.004;-0.066;2022-09-24T00:08:43;10.68;;;6.00;;
55833;SDS011;41761;43.004;-0.066;2022-09-24T00:11:10;8.20;;;5.45;;
55833;SDS011;41761;43.004;-0.066;2022-09-24T00:13:37;16.67;;;6.43;;
55833;SDS011;41761;43.004;-0.066;2022-09-24T00:16:04;11.38;;;6.43;;
55833;SDS011;41761;43.004;-0.066;2022-09-24T00:18:32;13.05;;;6.10;;
55833;SDS011;41761;43.004;-0.066;2022-09-24T00:20:58;8.63;;;5.55;;
55833;SDS011;41761;43.004;-0.066;2022-09-24T00:23:24;11.20;;;5.55;;
55833;SDS011;41761;43.004;-0.066;2022-09-24T00:25:51;14.45;;;6.13;;
55833;SDS011;41761;43.004;-0.066;2022-09-24T00:28:35;15.77;;;5.47;;
55833;SDS011;41761;43.004;-0.066;2022-09-24T00:31:03;16.73;;;6.55;;
55833;SDS011;41761;43.004;-0.066;2022-09-24T00:33:31;9.52;;;5.90;;
55833;SDS011;41761;43.004;-0.066;2022-09-24T00:35:59;9.60;;;5.55;;
55833;SDS011;41761;43.004;-0.066;2022-09-24T00:38:27;7.80;;;5.63;;
55833;SDS011;41761;43.004;-0.066;2022-09-24T00:40:53;10.15;;;5.95;;
55833;SDS011;41761;43.004;-0.066;2022-09-24T00:45:53;14.77;;;6.40;;
55833;SDS011;41761;43.004;-0.066;2022-09-24T00:48:20;10.27;;;6.07;;
55833;SDS011;41761;43.004;-0.066;2022-09-24T00:50:46;12.88;;;6.00;;
55833;SDS011;41761;43.004;-0.066;2022-09-24T00:53:13;12.85;;;6.75;;
55833;SDS011;41761;43.004;-0.066;2022-09-24T00:55:41;10.80;;;5.75;;
55833;SDS011;41761;43.004;-0.066;2022-09-24T00:58:09;8.50;;;5.50;;
55833;SDS011;41761;43.004;-0.066;2022-09-24T01:00:36;12.48;;;5.97;;
55833;SDS011;41761;43.004;-0.066;2022-09-24T01:03:06;8.57;;;4.80;;
55833;SDS011;41761;43.004;-0.066;2022-09-24T01:05:34;10.30;;;4.60;;
55833;SDS011;41761;43.004;-0.066;2022-09-24T01:08:00;13.45;;;5.13;;
55833;SDS011;41761;43.004;-0.066;2022-09-24T01:13:28;7.78;;;3.92;;
55833;SDS011;41761;43.004;-0.066;2022-09-24T01:15:59;10.27;;;4.13;;
55833;SDS011;41761;43.004;-0.066;2022-09-24T01:18:31;10.38;;;3.97;;
55833;SDS011;41761;43.004;-0.066;2022-09-24T01:31:23;15.05;;;4.45;;
55833;SDS011;41761;43.004;-0.066;2022-09-24T01:33:51;9.80;;;4.35;;
55833;SDS011;41761;43.004;-0.066;2022-09-24T01:36:19;8.02;;;4.18;;
55833;SDS011;41761;43.004;-0.066;2022-09-24T01:38:46;11.63;;;4.40;;
55833;SDS011;41761;43.004;-0.066;2022-09-24T01:41:14;8.27;;;4.00;;
55833;SDS011;41761;43.004;-0.066;2022-09-24T01:43:41;7.97;;;4.18;;
55833;SDS011;41761;43.004;-0.066;2022-09-24T01:46:08;9.90;;;4.07;;
55833;SDS011;41761;43.004;-0.066;2022-09-24T01:48:37;9.77;;;4.35;;
55833;SDS011;41761;43.004;-0.066;2022-09-24T01:54:48;6.00;;;4.20;;
55833;SDS011;41761;43.004;-0.066;2022-09-24T01:56:48;13.02;;;4.05;;
55833;SDS011;41761;43.004;-0.066;2022-09-24T02:02:01;9.52;;;3.38;;
55833;SDS011;41761;43.004;-0.066;2022-09-24T02:04:29;9.07;;;4.05;;
55833;SDS011;41761;43.004;-0.066;2022-09-24T02:06:59;9.23;;;4.60;;
55833;SDS011;41761;43.004;-0.066;2022-09-24T02:09:37;9.50;;;4.28;;
55833;SDS011;41761;43.004;-0.066;2022-09-24T02:12:06;7.13;;;4.03;;
55833;SDS011;41761;43.004;-0.066;2022-09-24T02:14:36;10.00;;;4.38;;
55833;SDS011;41761;43.004;-0.066;2022-09-24T02:17:04;9.40;;;4.70;;
55833;SDS011;41761;43.004;-0.066;2022-09-24T02:19:32;11.00;;;4.00;;
55833;SDS011;41761;43.004;-0.066;2022-09-24T02:22:00;8.55;;;4.28;;
55833;SDS011;41761;43.004;-0.066;2022-09-24T02:24:35;7.78;;;3.97;;
55833;SDS011;41761;43.004;-0.066;2022-09-24T02:27:02;8.10;;;4.80;;
55833;SDS011;41761;43.004;-0.066;2022-09-24T02:29:28;8.95;;;4.05;;
55833;SDS011;41761;43.004;-0.066;2022-09-24T02:31:55;10.70;;;4.47;;
55833;SDS011;41761;43.004;-0.066;2022-09-24T02:34:24;5.95;;;4.28;;
55833;SDS011;41761;43.004;-0.066;2022-09-24T02:36:59;8.32;;;4.22;;
55833;SDS011;41761;43.004;-0.066;2022-09-24T02:39:29;6.72;;;4.38;;
55833;SDS011;41761;43.004;-0.066;2022-09-24T02:41:55;6.55;;;4.60;;
55833;SDS011;41761;43.004;-0.066;2022-09-24T02:44:22;11.15;;;4.35;;
55833;SDS011;41761;43.004;-0.066;2022-09-24T02:46:48;9.07;;;4.13;;
55833;SDS011;41761;43.004;-0.066;2022-09-24T02:49:15;5.07;;;3.88;;
55833;SDS011;41761;43.004;-0.066;2022-09-24T02:51:42;12.23;;;3.90;;
55833;SDS011;41761;43.004;-0.066;2022-09-24T02:54:08;8.60;;;4.70;;
55833;SDS011;41761;43.004;-0.066;2022-09-24T02:56:35;7.05;;;4.28;;
55833;SDS011;41761;43.004;-0.066;2022-09-24T02:59:01;4.60;;;3.72;;
55833;SDS011;41761;43.004;-0.066;2022-09-24T03:01:28;10.50;;;4.38;;
55833;SDS011;41761;43.004;-0.066;2022-09-24T03:03:54;7.22;;;4.13;;
55833;SDS011;41761;43.004;-0.066;2022-09-24T03:06:21;7.68;;;5.38;;
55833;SDS011;41761;43.004;-0.066;2022-09-24T03:08:49;11.65;;;4.47;;
55833;SDS011;41761;43.004;-0.066;2022-09-24T03:11:16;12.00;;;3.85;;
55833;SDS011;41761;43.004;-0.066;2022-09-24T03:13:42;6.05;;;3.95;;
55833;SDS011;41761;43.004;-0.066;2022-09-24T03:16:08;12.95;;;4.28;;
55833;SDS011;41761;43.004;-0.066;2022-09-24T03:18:34;10.48;;;4.18;;
55833;SDS011;41761;43.004;-0.066;2022-09-24T03:21:02;7.10;;;4.15;;
55833;SDS011;41761;43.004;-0.066;2022-09-24T03:23:29;4.88;;;3.78;;
55833;SDS011;41761;43.004;-0.066;2022-09-24T03:25:55;12.15;;;4.63;;
55833;SDS011;41761;43.004;-0.066;2022-09-24T03:28:22;7.05;;;3.80;;
55833;SDS011;41761;43.004;-0.066;2022-09-24T03:30:48;7.93;;;3.45;;
55833;SDS011;41761;43.004;-0.066;2022-09-24T03:33:28;11.23;;;4.47;;
55833;SDS011;41761;43.004;-0.066;2022-09-24T03:35:55;9.02;;;4.03;;
55833;SDS011;41761;43.004;-0.066;2022-09-24T03:38:21;6.75;;;4.35;;
55833;SDS011;41761;43.004;-0.066;2022-09-24T03:40:48;17.15;;;4.18;;
55833;SDS011;41761;43.004;-0.066;2022-09-24T03:43:14;10.43;;;4.65;;
55833;SDS011;41761;43.004;-0.066;2022-09-24T03:45:40;12.60;;;4.22;;
55833;SDS011;41761;43.004;-0.066;2022-09-24T03:48:06;9.40;;;3.95;;
55833;SDS011;41761;43.004;-0.066;2022-09-24T03:50:34;11.32;;;4.60;;
55833;SDS011;41761;43.004;-0.066;2022-09-24T03:53:01;6.00;;;4.20;;
55833;SDS011;41761;43.004;-0.066;2022-09-24T03:55:27;8.38;;;4.38;;
55833;SDS011;41761;43.004;-0.066;2022-09-24T03:57:53;7.55;;;4.72;;
55833;SDS011;41761;43.004;-0.066;2022-09-24T04:00:19;12.23;;;4.68;;
55833;SDS011;41761;43.004;-0.066;2022-09-24T04:02:47;13.75;;;6.00;;
55833;SDS011;41761;43.004;-0.066;2022-09-24T04:05:14;10.77;;;5.07;;
55833;SDS011;41761;43.004;-0.066;2022-09-24T04:07:43;13.95;;;4.85;;
55833;SDS011;41761;43.004;-0.066;2022-09-24T04:10:10;8.48;;;5.20;;
55833;SDS011;41761;43.004;-0.066;2022-09-24T04:12:37;6.55;;;5.20;;
55833;SDS011;41761;43.004;-0.066;2022-09-24T04:15:04;8.20;;;6.03;;
55833;SDS011;41761;43.004;-0.066;2022-09-24T04:17:30;9.10;;;5.60;;
55833;SDS011;41761;43.004;-0.066;2022-09-24T04:19:56;13.18;;;6.50;;
55833;SDS011;41761;43.004;-0.066;2022-09-24T04:22:23;16.33;;;6.43;;
55833;SDS011;41761;43.004;-0.066;2022-09-24T04:24:50;17.30;;;5.95;;
55833;SDS011;41761;43.004;-0.066;2022-09-24T04:27:17;9.95;;;5.97;;
55833;SDS011;41761;43.004;-0.066;2022-09-24T04:29:43;16.90;;;6.72;;
55833;SDS011;41761;43.004;-0.066;2022-09-24T04:32:09;19.02;;;6.65;;
55833;SDS011;41761;43.004;-0.066;2022-09-24T04:34:35;13.77;;;6.57;;
55833;SDS011;41761;43.004;-0.066;2022-09-24T04:37:01;15.57;;;6.28;;
55833;SDS011;41761;43.004;-0.066;2022-09-24T04:39:27;15.50;;;6.25;;
55833;SDS011;41761;43.004;-0.066;2022-09-24T04:41:54;11.07;;;7.13;;
55833;SDS011;41761;43.004;-0.066;2022-09-24T04:44:20;17.20;;;6.43;;
55833;SDS011;41761;43.004;-0.066;2022-09-24T04:46:47;19.08;;;7.85;;
55833;SDS011;41761;43.004;-0.066;2022-09-24T04:49:13;15.05;;;7.70;;
55833;SDS011;41761;43.004;-0.066;2022-09-24T04:51:40;16.63;;;7.43;;
55833;SDS011;41761;43.004;-0.066;2022-09-24T04:54:07;15.43;;;7.72;;
55833;SDS011;41761;43.004;-0.066;2022-09-24T04:56:33;26.98;;;7.68;;
55833;SDS011;41761;43.004;-0.066;2022-09-24T04:58:59;13.27;;;7.72;;
55833;SDS011;41761;43.004;-0.066;2022-09-24T05:01:25;15.85;;;8.30;;
55833;SDS011;41761;43.004;-0.066;2022-09-24T05:03:52;14.30;;;8.77;;
55833;SDS011;41761;43.004;-0.066;2022-09-24T05:06:18;19.42;;;8.07;;
55833;SDS011;41761;43.004;-0.066;2022-09-24T05:08:44;11.23;;;8.85;;
55833;SDS011;41761;43.004;-0.066;2022-09-24T05:11:10;16.08;;;8.88;;
55833;SDS011;41761;43.004;-0.066;2022-09-24T05:13:37;13.82;;;9.20;;
55833;SDS011;41761;43.004;-0.066;2022-09-24T05:16:03;9.18;;;7.28;;
55833;SDS011;41761;43.004;-0.066;2022-09-24T05:18:29;21.10;;;7.75;;
55833;SDS011;41761;43.004;-0.066;2022-09-24T05:20:55;14.38;;;7.43;;
55833;SDS011;41761;43.004;-0.066;2022-09-24T05:23:21;16.88;;;7.90;;
55833;SDS011;41761;43.004;-0.066;2022-09-24T05:25:48;13.82;;;8.55;;
55833;SDS011;41761;43.004;-0.066;2022-09-24T05:28:32;9.68;;;7.85;;
55833;SDS011;41761;43.004;-0.066;2022-09-24T05:30:59;13.07;;;8.95;;
55833;SDS011;41761;43.004;-0.066;2022-09-24T05:33:26;16.05;;;10.38;;
55833;SDS011;41761;43.004;-0.066;2022-09-24T05:35:56;13.05;;;9.65;;
55833;SDS011;41761;43.004;-0.066;2022-09-24T05:38:23;18.33;;;10.63;;
55833;SDS011;41761;43.004;-0.066;2022-09-24T05:40:49;19.92;;;10.90;;
55833;SDS011;41761;43.004;-0.066;2022-09-24T05:43:16;19.92;;;11.18;;
55833;SDS011;41761;43.004;-0.066;2022-09-24T05:45:46;12.85;;;10.10;;
55833;SDS011;41761;43.004;-0.066;2022-09-24T05:48:14;14.55;;;10.13;;
55833;SDS011;41761;43.004;-0.066;2022-09-24T05:50:40;20.10;;;10.48;;
55833;SDS011;41761;43.004;-0.066;2022-09-24T05:53:06;22.30;;;10.85;;
55833;SDS011;41761;43.004;-0.066;2022-09-24T05:55:33;20.08;;;11.80;;
55833;SDS011;41761;43.004;-0.066;2022-09-24T05:58:04;23.42;;;11.13;;
55833;SDS011;41761;43.004;-0.066;2022-09-24T06:00:31;15.50;;;11.10;;
55833;SDS011;41761;43.004;-0.066;2022-09-24T06:03:01;23.45;;;11.60;;
55833;SDS011;41761;43.004;-0.066;2022-09-24T06:05:28;20.42;;;10.23;;
55833;SDS011;41761;43.004;-0.066;2022-09-24T06:07:54;14.85;;;9.40;;
55833;SDS011;41761;43.004;-0.066;2022-09-24T06:10:20;14.55;;;8.70;;
55833;SDS011;41761;43.004;-0.066;2022-09-24T06:12:46;13.43;;;8.68;;
55833;SDS011;41761;43.004;-0.066;2022-09-24T06:15:13;19.20;;;8.98;;
55833;SDS011;41761;43.004;-0.066;2022-09-24T06:17:39;10.60;;;8.23;;
55833;SDS011;41761;43.004;-0.066;2022-09-24T06:20:06;17.10;;;7.90;;
55833;SDS011;41761;43.004;-0.066;2022-09-24T06:22:32;11.50;;;7.15;;
55833;SDS011;41761;43.004;-0.066;2022-09-24T06:24:58;14.10;;;7.68;;
55833;SDS011;41761;43.004;-0.066;2022-09-24T06:27:24;15.05;;;7.28;;
55833;SDS011;41761;43.004;-0.066;2022-09-24T06:29:50;17.52;;;6.80;;
55833;SDS011;41761;43.004;-0.066;2022-09-24T06:32:16;16.70;;;7.53;;
55833;SDS011;41761;43.004;-0.066;2022-09-24T06:34:43;9.80;;;6.50;;
55833;SDS011;41761;43.004;-0.066;2022-09-24T06:37:10;25.85;;;7.05;;
55833;SDS011;41761;43.004;-0.066;2022-09-24T06:39:36;10.85;;;6.03;;
55833;SDS011;41761;43.004;-0.066;2022-09-24T06:42:02;12.68;;;5.85;;
55833;SDS011;41761;43.004;-0.066;2022-09-24T06:44:28;14.20;;;5.85;;
55833;SDS011;41761;43.004;-0.066;2022-09-24T06:46:55;7.00;;;5.10;;
55833;SDS011;41761;43.004;-0.066;2022-09-24T06:49:21;14.07;;;6.25;;
55833;SDS011;41761;43.004;-0.066;2022-09-24T06:51:48;11.20;;;5.90;;
55833;SDS011;41761;43.004;-0.066;2022-09-24T06:54:15;7.78;;;5.57;;
55833;SDS011;41761;43.004;-0.066;2022-09-24T06:56:41;10.52;;;5.60;;
55833;SDS011;41761;43.004;-0.066;2022-09-24T06:59:07;11.57;;;5.38;;
55833;SDS011;41761;43.004;-0.066;2022-09-24T07:01:33;9.00;;;4.72;;
55833;SDS011;41761;43.004;-0.066;2022-09-24T07:04:00;24.35;;;6.25;;
55833;SDS011;41761;43.004;-0.066;2022-09-24T07:06:26;8.05;;;5.25;;
55833;SDS011;41761;43.004;-0.066;2022-09-24T07:09:12;9.90;;;5.25;;
55833;SDS011;41761;43.004;-0.066;2022-09-24T07:11:38;11.15;;;5.18;;
55833;SDS011;41761;43.004;-0.066;2022-09-24T07:14:07;7.18;;;4.93;;
55833;SDS011;41761;43.004;-0.066;2022-09-24T07:16:33;14.18;;;5.32;;
55833;SDS011;41761;43.004;-0.066;2022-09-24T07:18:59;8.52;;;4.60;;
55833;SDS011;41761;43.004;-0.066;2022-09-24T07:21:25;6.18;;;4.35;;
55833;SDS011;41761;43.004;-0.066;2022-09-24T07:23:51;8.15;;;4.85;;
55833;SDS011;41761;43.004;-0.066;2022-09-24T07:26:17;10.75;;;5.28;;
55833;SDS011;41761;43.004;-0.066;2022-09-24T07:28:44;6.57;;;4.47;;
55833;SDS011;41761;43.004;-0.066;2022-09-24T07:31:10;7.95;;;4.45;;
55833;SDS011;41761;43.004;-0.066;2022-09-24T07:33:36;9.95;;;4.35;;
55833;SDS011;41761;43.004;-0.066;2022-09-24T07:36:03;9.57;;;4.13;;
55833;SDS011;41761;43.004;-0.066;2022-09-24T07:38:31;11.55;;;3.97;;
55833;SDS011;41761;43.004;-0.066;2022-09-24T07:41:00;5.22;;;3.60;;
55833;SDS011;41761;43.004;-0.066;2022-09-24T07:43:28;8.20;;;3.50;;
55833;SDS011;41761;43.004;-0.066;2022-09-24T07:45:57;4.00;;;3.33;;
55833;SDS011;41761;43.004;-0.066;2022-09-24T07:48:23;7.90;;;3.33;;
55833;SDS011;41761;43.004;-0.066;2022-09-24T07:50:49;5.28;;;3.83;;
55833;SDS011;41761;43.004;-0.066;2022-09-24T07:53:15;9.18;;;3.70;;
55833;SDS011;41761;43.004;-0.066;2022-09-24T07:55:42;5.68;;;3.90;;
55833;SDS011;41761;43.004;-0.066;2022-09-24T07:58:11;5.95;;;3.35;;
55833;SDS011;41761;43.004;-0.066;2022-09-24T08:00:38;8.30;;;3.30;;
55833;SDS011;41761;43.004;-0.066;2022-09-24T08:03:04;7.50;;;2.90;;
55833;SDS011;41761;43.004;-0.066;2022-09-24T08:05:31;5.97;;;3.10;;
55833;SDS011;41761;43.004;-0.066;2022-09-24T08:07:58;8.18;;;3.78;;
55833;SDS011;41761;43.004;-0.066;2022-09-24T08:10:25;9.73;;;3.30;;
55833;SDS011;41761;43.004;-0.066;2022-09-24T08:12:52;4.95;;;3.35;;
55833;SDS011;41761;43.004;-0.066;2022-09-24T08:15:21;15.25;;;3.88;;
55833;SDS011;41761;43.004;-0.066;2022-09-24T08:17:47;10.20;;;3.50;;
55833;SDS011;41761;43.004;-0.066;2022-09-24T08:20:13;7.00;;;4.18;;
55833;SDS011;41761;43.004;-0.066;2022-09-24T08:22:42;7.10;;;4.18;;
55833;SDS011;41761;43.004;-0.066;2022-09-24T08:25:09;6.25;;;4.40;;
55833;SDS011;41761;43.004;-0.066;2022-09-24T08:27:35;10.80;;;4.85;;
55833;SDS011;41761;43.004;-0.066;2022-09-24T08:30:03;8.98;;;4.93;;
55833;SDS011;41761;43.004;-0.066;2022-09-24T08:32:29;16.38;;;3.80;;
55833;SDS011;41761;43.004;-0.066;2022-09-24T08:34:55;3.63;;;3.25;;
55833;SDS011;41761;43.004;-0.066;2022-09-24T08:37:21;6.93;;;3.30;;
55833;SDS011;41761;43.004;-0.066;2022-09-24T08:39:47;5.57;;;3.03;;
55833;SDS011;41761;43.004;-0.066;2022-09-24T08:42:14;4.43;;;2.65;;
55833;SDS011;41761;43.004;-0.066;2022-09-24T08:44:47;2.83;;;2.63;;
55833;SDS011;41761;43.004;-0.066;2022-09-24T08:47:33;7.97;;;2.70;;
55833;SDS011;41761;43.004;-0.066;2022-09-24T09:00:23;5.30;;;2.10;;
55833;SDS011;41761;43.004;-0.066;2022-09-24T09:08:01;4.63;;;2.20;;
55833;SDS011;41761;43.004;-0.066;2022-09-24T09:10:35;3.80;;;2.00;;
55833;SDS011;41761;43.004;-0.066;2022-09-24T09:13:09;4.93;;;2.03;;
55833;SDS011;41761;43.004;-0.066;2022-09-24T09:15:38;2.15;;;2.00;;
55833;SDS011;41761;43.004;-0.066;2022-09-24T09:18:22;4.75;;;2.25;;
55833;SDS011;41761;43.004;-0.066;2022-09-24T09:20:51;9.93;;;2.58;;
55833;SDS011;41761;43.004;-0.066;2022-09-24T09:23:20;7.10;;;1.92;;
55833;SDS011;41761;43.004;-0.066;2022-09-24T09:25:57;6.47;;;2.85;;
55833;SDS011;41761;43.004;-0.066;2022-09-24T09:28:25;9.63;;;2.72;;
55833;SDS011;41761;43.004;-0.066;2022-09-24T09:38:16;2.28;;;2.08;;
55833;SDS011;41761;43.004;-0.066;2022-09-24T09:40:48;3.78;;;2.40;;
55833;SDS011;41761;43.004;-0.066;2022-09-24T09:43:18;4.78;;;2.30;;
55833;SDS011;41761;43.004;-0.066;2022-09-24T09:48:27;3.92;;;2.22;;
55833;SDS011;41761;43.004;-0.066;2022-09-24T09:50:55;8.23;;;3.13;;
55833;SDS011;41761;43.004;-0.066;2022-09-24T09:53:24;3.45;;;2.30;;
55833;SDS011;41761;43.004;-0.066;2022-09-24T09:56:04;2.63;;;1.92;;
55833;SDS011;41761;43.004;-0.066;2022-09-24T09:58:32;5.22;;;2.13;;
55833;SDS011;41761;43.004;-0.066;2022-09-24T10:06:11;3.40;;;2.33;;
55833;SDS011;41761;43.004;-0.066;2022-09-24T10:08:38;3.53;;;2.53;;
55833;SDS011;41761;43.004;-0.066;2022-09-24T10:11:05;4.32;;;2.05;;
55833;SDS011;41761;43.004;-0.066;2022-09-24T10:13:31;2.53;;;2.30;;
55833;SDS011;41761;43.004;-0.066;2022-09-24T10:16:02;3.42;;;2.22;;
55833;SDS011;41761;43.004;-0.066;2022-09-24T10:18:30;5.15;;;2.45;;
55833;SDS011;41761;43.004;-0.066;2022-09-24T10:20:58;8.15;;;3.00;;
55833;SDS011;41761;43.004;-0.066;2022-09-24T10:23:31;6.10;;;2.38;;
55833;SDS011;41761;43.004;-0.066;2022-09-24T10:25:59;5.35;;;2.33;;
55833;SDS011;41761;43.004;-0.066;2022-09-24T10:28:26;7.22;;;2.53;;
55833;SDS011;41761;43.004;-0.066;2022-09-24T10:36:14;6.53;;;3.15;;
55833;SDS011;41761;43.004;-0.066;2022-09-24T10:38:41;3.08;;;2.35;;
55833;SDS011;41761;43.004;-0.066;2022-09-24T10:41:15;6.13;;;3.10;;
55833;SDS011;41761;43.004;-0.066;2022-09-24T10:43:54;4.10;;;2.08;;
55833;SDS011;41761;43.004;-0.066;2022-09-24T10:51:25;4.95;;;1.58;;
55833;SDS011;41761;43.004;-0.066;2022-09-24T10:53:56;4.07;;;1.60;;
55833;SDS011;41761;43.004;-0.066;2022-09-24T10:56:30;2.58;;;1.30;;
55833;SDS011;41761;43.004;-0.066;2022-09-24T10:59:02;3.05;;;1.60;;
55833;SDS011;41761;43.004;-0.066;2022-09-24T11:09:32;4.13;;;1.90;;
55833;SDS011;41761;43.004;-0.066;2022-09-24T11:12:05;6.97;;;2.05;;
55833;SDS011;41761;43.004;-0.066;2022-09-24T11:17:28;1.58;;;1.48;;
55833;SDS011;41761;43.004;-0.066;2022-09-24T11:22:36;1.88;;;1.40;;
55833;SDS011;41761;43.004;-0.066;2022-09-24T11:25:10;2.35;;;1.50;;
55833;SDS011;41761;43.004;-0.066;2022-09-24T11:27:50;1.73;;;1.63;;
55833;SDS011;41761;43.004;-0.066;2022-09-24T11:30:20;4.68;;;1.52;;
55833;SDS011;41761;43.004;-0.066;2022-09-24T11:38:15;2.92;;;1.35;;
55833;SDS011;41761;43.004;-0.066;2022-09-24T11:48:49;6.22;;;1.27;;
55833;SDS011;41761;43.004;-0.066;2022-09-24T11:51:19;1.60;;;1.30;;
55833;SDS011;41761;43.004;-0.066;2022-09-24T11:53:50;1.70;;;1.60;;
55833;SDS011;41761;43.004;-0.066;2022-09-24T11:56:30;1.77;;;1.67;;
55833;SDS011;41761;43.004;-0.066;2022-09-24T11:59:21;1.83;;;1.70;;
55833;SDS011;41761;43.004;-0.066;2022-09-24T12:01:45;5.22;;;1.58;;
55833;SDS011;41761;43.004;-0.066;2022-09-24T12:04:18;2.78;;;1.80;;
55833;SDS011;41761;43.004;-0.066;2022-09-24T12:06:51;7.03;;;1.70;;
55833;SDS011;41761;43.004;-0.066;2022-09-24T12:14:23;2.67;;;1.63;;
55833;SDS011;41761;43.004;-0.066;2022-09-24T12:16:52;2.17;;;1.90;;
55833;SDS011;41761;43.004;-0.066;2022-09-24T12:19:19;2.50;;;1.58;;
55833;SDS011;41761;43.004;-0.066;2022-09-24T12:21:48;1.45;;;1.35;;
55833;SDS011;41761;43.004;-0.066;2022-09-24T12:24:29;1.60;;;1.50;;
55833;SDS011;41761;43.004;-0.066;2022-09-24T12:26:58;7.25;;;1.77;;
55833;SDS011;41761;43.004;-0.066;2022-09-24T12:29:32;1.20;;;1.20;;
55833;SDS011;41761;43.004;-0.066;2022-09-24T12:35:50;1.10;;;1.10;;
55833;SDS011;41761;43.004;-0.066;2022-09-24T12:43:24;1.55;;;1.50;;
55833;SDS011;41761;43.004;-0.066;2022-09-24T12:46:01;1.42;;;1.27;;
55833;SDS011;41761;43.004;-0.066;2022-09-24T12:48:29;1.80;;;1.70;;
55833;SDS011;41761;43.004;-0.066;2022-09-24T12:51:00;5.03;;;1.65;;
55833;SDS011;41761;43.004;-0.066;2022-09-24T12:53:37;2.40;;;1.50;;
55833;SDS011;41761;43.004;-0.066;2022-09-24T12:56:05;2.15;;;1.40;;
55833;SDS011;41761;43.004;-0.066;2022-09-24T12:58:39;3.80;;;1.30;;
55833;SDS011;41761;43.004;-0.066;2022-09-24T13:01:07;1.67;;;1.50;;
55833;SDS011;41761;43.004;-0.066;2022-09-24T13:03:34;1.60;;;1.50;;
55833;SDS011;41761;43.004;-0.066;2022-09-24T13:06:01;1.85;;;1.75;;
55833;SDS011;41761;43.004;-0.066;2022-09-24T13:08:35;1.52;;;1.45;;
55833;SDS011;41761;43.004;-0.066;2022-09-24T13:11:02;1.45;;;1.35;;
55833;SDS011;41761;43.004;-0.066;2022-09-24T13:13:32;1.77;;;1.67;;
55833;SDS011;41761;43.004;-0.066;2022-09-24T13:18:30;2.10;;;1.30;;
55833;SDS011;41761;43.004;-0.066;2022-09-24T13:20:58;7.13;;;1.50;;
55833;SDS011;41761;43.004;-0.066;2022-09-24T13:25:56;1.50;;;1.40;;
55833;SDS011;41761;43.004;-0.066;2022-09-24T13:28:24;1.67;;;1.10;;
55833;SDS011;41761;43.004;-0.066;2022-09-24T13:30:56;1.48;;;1.23;;
55833;SDS011;41761;43.004;-0.066;2022-09-24T13:33:28;3.47;;;1.80;;
55833;SDS011;41761;43.004;-0.066;2022-09-24T13:36:16;1.33;;;1.33;;
55833;SDS011;41761;43.004;-0.066;2022-09-24T13:39:45;1.27;;;1.17;;
55833;SDS011;41761;43.004;-0.066;2022-09-24T13:44:16;1.80;;;1.70;;
55833;SDS011;41761;43.004;-0.066;2022-09-24T13:46:45;1.90;;;1.80;;
55833;SDS011;41761;43.004;-0.066;2022-09-24T13:49:16;4.03;;;1.58;;
55833;SDS011;41761;43.004;-0.066;2022-09-24T13:51:44;3.00;;;1.98;;
55833;SDS011;41761;43.004;-0.066;2022-09-24T13:54:54;2.28;;;1.52;;
55833;SDS011;41761;43.004;-0.066;2022-09-24T13:57:06;2.90;;;1.48;;
55833;SDS011;41761;43.004;-0.066;2022-09-24T13:59:34;1.95;;;1.85;;
55833;SDS011;41761;43.004;-0.066;2022-09-24T14:02:00;5.05;;;2.00;;
55833;SDS011;41761;43.004;-0.066;2022-09-24T14:04:26;2.00;;;1.90;;
55833;SDS011;41761;43.004;-0.066;2022-09-24T14:06:53;6.38;;;2.72;;
55833;SDS011;41761;43.004;-0.066;2022-09-24T14:09:28;1.92;;;1.83;;
55833;SDS011;41761;43.004;-0.066;2022-09-24T14:11:59;5.78;;;1.60;;
55833;SDS011;41761;43.004;-0.066;2022-09-24T14:14:27;6.70;;;2.78;;
55833;SDS011;41761;43.004;-0.066;2022-09-24T14:17:04;5.45;;;3.10;;
55833;SDS011;41761;43.004;-0.066;2022-09-24T14:19:30;12.90;;;4.35;;
55833;SDS011;41761;43.004;-0.066;2022-09-24T14:21:58;4.70;;;2.90;;
55833;SDS011;41761;43.004;-0.066;2022-09-24T14:24:35;4.57;;;2.47;;
55833;SDS011;41761;43.004;-0.066;2022-09-24T14:27:12;7.30;;;2.83;;
55833;SDS011;41761;43.004;-0.066;2022-09-24T14:32:18;2.70;;;2.47;;
55833;SDS011;41761;43.004;-0.066;2022-09-24T14:34:46;2.55;;;2.22;;
55833;SDS011;41761;43.004;-0.066;2022-09-24T14:39:42;5.20;;;2.30;;
55833;SDS011;41761;43.004;-0.066;2022-09-24T14:42:16;3.67;;;1.90;;
55833;SDS011;41761;43.004;-0.066;2022-09-24T14:44:46;7.25;;;1.70;;
55833;SDS011;41761;43.004;-0.066;2022-09-24T14:47:29;3.20;;;1.75;;
55833;SDS011;41761;43.004;-0.066;2022-09-24T14:49:56;6.03;;;2.17;;
55833;SDS011;41761;43.004;-0.066;2022-09-24T14:57:34;9.73;;;3.13;;
55833;SDS011;41761;43.004;-0.066;2022-09-24T15:00:00;11.07;;;3.28;;
55833;SDS011;41761;43.004;-0.066;2022-09-24T15:04:54;6.75;;;2.08;;
55833;SDS011;41761;43.004;-0.066;2022-09-24T15:07:21;3.28;;;1.85;;
55833;SDS011;41761;43.004;-0.066;2022-09-24T15:09:49;3.75;;;1.90;;
55833;SDS011;41761;43.004;-0.066;2022-09-24T15:12:18;3.60;;;1.85;;
55833;SDS011;41761;43.004;-0.066;2022-09-24T15:14:55;3.70;;;1.50;;
55833;SDS011;41761;43.004;-0.066;2022-09-24T15:17:23;2.10;;;1.73;;
55833;SDS011;41761;43.004;-0.066;2022-09-24T15:19:54;2.20;;;2.00;;
55833;SDS011;41761;43.004;-0.066;2022-09-24T15:22:22;2.05;;;1.95;;
55833;SDS011;41761;43.004;-0.066;2022-09-24T15:24:51;3.10;;;1.80;;
55833;SDS011;41761;43.004;-0.066;2022-09-24T15:27:19;2.13;;;1.80;;
55833;SDS011;41761;43.004;-0.066;2022-09-24T15:29:46;2.35;;;1.70;;
55833;SDS011;41761;43.004;-0.066;2022-09-24T15:32:20;1.60;;;1.52;;
55833;SDS011;41761;43.004;-0.066;2022-09-24T15:34:47;5.68;;;2.22;;
55833;SDS011;41761;43.004;-0.066;2022-09-24T15:37:14;13.82;;;1.85;;
55833;SDS011;41761;43.004;-0.066;2022-09-24T15:39:41;2.45;;;1.90;;
55833;SDS011;41761;43.004;-0.066;2022-09-24T15:42:13;4.20;;;1.70;;
55833;SDS011;41761;43.004;-0.066;2022-09-24T15:44:40;1.52;;;1.50;;
55833;SDS011;41761;43.004;-0.066;2022-09-24T15:47:08;1.58;;;1.48;;
55833;SDS011;41761;43.004;-0.066;2022-09-24T15:49:34;1.88;;;1.52;;
55833;SDS011;41761;43.004;-0.066;2022-09-24T15:52:21;2.70;;;1.75;;
55833;SDS011;41761;43.004;-0.066;2022-09-24T15:54:52;4.43;;;2.03;;
55833;SDS011;41761;43.004;-0.066;2022-09-24T15:57:18;1.58;;;1.50;;
55833;SDS011;41761;43.004;-0.066;2022-09-24T15:59:46;1.70;;;1.60;;
55833;SDS011;41761;43.004;-0.066;2022-09-24T16:02:20;5.28;;;1.63;;
55833;SDS011;41761;43.004;-0.066;2022-09-24T16:04:47;1.90;;;1.80;;
55833;SDS011;41761;43.004;-0.066;2022-09-24T16:07:14;1.55;;;1.38;;
55833;SDS011;41761;43.004;-0.066;2022-09-24T16:09:41;8.35;;;2.00;;
55833;SDS011;41761;43.004;-0.066;2022-09-24T16:12:08;1.73;;;1.60;;
55833;SDS011;41761;43.004;-0.066;2022-09-24T16:14:34;1.52;;;1.42;;
55833;SDS011;41761;43.004;-0.066;2022-09-24T16:17:01;3.60;;;1.63;;
55833;SDS011;41761;43.004;-0.066;2022-09-24T16:19:27;1.77;;;1.63;;
55833;SDS011;41761;43.004;-0.066;2022-09-24T16:21:53;4.10;;;1.80;;
55833;SDS011;41761;43.004;-0.066;2022-09-24T16:24:19;3.00;;;2.25;;
55833;SDS011;41761;43.004;-0.066;2022-09-24T16:26:46;2.03;;;1.92;;
55833;SDS011;41761;43.004;-0.066;2022-09-24T16:29:15;2.22;;;2.10;;
55833;SDS011;41761;43.004;-0.066;2022-09-24T16:31:42;4.80;;;2.83;;
55833;SDS011;41761;43.004;-0.066;2022-09-24T16:34:09;5.10;;;1.90;;
55833;SDS011;41761;43.004;-0.066;2022-09-24T16:36:35;5.97;;;2.03;;
55833;SDS011;41761;43.004;-0.066;2022-09-24T16:39:02;2.03;;;1.90;;
55833;SDS011;41761;43.004;-0.066;2022-09-24T16:41:28;1.95;;;1.85;;
55833;SDS011;41761;43.004;-0.066;2022-09-24T16:43:58;3.00;;;2.70;;